createdAt,value
2019-05-25T00:00:43.831Z,1.3
2019-05-25T00:01:19.808Z,1.5
2019-05-25T00:02:31.751Z,0.9
2019-05-25T00:03:43.802Z,0.6
2019-05-25T00:04:19.766Z,0.6
2019-05-25T00:05:31.947Z,1
2019-05-25T00:06:43.775Z,0.8
2019-05-25T00:07:19.852Z,0.8
2019-05-25T00:08:31.796Z,0.7
2019-05-25T00:09:43.738Z,0.4
2019-05-25T00:10:19.823Z,0.7
2019-05-25T00:11:31.779Z,0.8
2019-05-25T00:12:43.832Z,0.6
2019-05-25T00:13:19.857Z,0.9
2019-05-25T00:14:31.729Z,0.6
2019-05-25T00:15:43.800Z,0.8
2019-05-25T00:16:19.779Z,0.8
2019-05-25T00:17:31.823Z,0.4
2019-05-25T00:18:43.772Z,0.8
2019-05-25T00:19:19.750Z,0.8
2019-05-25T00:20:31.804Z,0.8
2019-05-25T00:21:43.739Z,0.8
2019-05-25T00:22:19.811Z,0.8
2019-05-25T00:23:31.773Z,0.8
2019-05-25T00:24:13.648Z,0.8
2019-05-25T00:25:19.787Z,0.6
2019-05-25T00:26:31.726Z,0.8
2019-05-25T00:27:43.762Z,0.8
2019-05-25T00:28:19.756Z,0.9
2019-05-25T00:29:31.806Z,0.8
2019-05-25T00:30:43.771Z,0.8
2019-05-25T00:31:19.834Z,0.8
2019-05-25T00:32:31.780Z,0.8
2019-05-25T00:33:43.844Z,0.8
2019-05-25T00:34:19.803Z,0.9
2019-05-25T00:35:31.728Z,0.9
2019-05-25T00:36:43.805Z,0.6
2019-05-25T00:37:19.742Z,0.2
2019-05-25T00:38:31.812Z,0.2
2019-05-25T00:39:43.885Z,0.4
2019-05-25T00:40:19.731Z,0.4
2019-05-25T00:41:31.795Z,0.8
2019-05-25T00:42:43.728Z,0.4
2019-05-25T00:43:19.852Z,0.6
2019-05-25T00:44:31.749Z,0.4
2019-05-25T00:45:43.807Z,0
2019-05-25T00:46:19.782Z,0
2019-05-25T00:47:31.727Z,0.4
2019-05-25T00:48:43.784Z,0.6
2019-05-25T00:49:19.757Z,0.4
2019-05-25T00:50:31.791Z,0.2
2019-05-25T00:51:43.772Z,0.4
2019-05-25T00:52:19.840Z,0
2019-05-25T00:53:31.790Z,0.2
2019-05-25T00:54:43.709Z,0.2
2019-05-25T00:55:19.802Z,0
2019-05-25T00:56:31.760Z,0
2019-05-25T00:57:43.810Z,0.2
2019-05-25T00:58:19.846Z,0
2019-05-25T00:59:31.744Z,0.2
2019-05-25T01:00:43.815Z,0.6
2019-05-25T01:01:19.739Z,0.8
2019-05-25T01:02:31.816Z,0.4
2019-05-25T01:03:43.745Z,0
2019-05-25T01:04:19.705Z,0
2019-05-25T01:05:31.782Z,0.2
2019-05-25T01:06:43.687Z,0.2
2019-05-25T01:07:19.783Z,0.4
2019-05-25T01:08:31.718Z,0.8
2019-05-25T01:09:43.792Z,0.8
2019-05-25T01:10:19.772Z,0.6
2019-05-25T01:10:55.742Z,0.4
2019-05-25T01:11:31.693Z,0.4
2019-05-25T01:12:07.766Z,0.6
2019-05-25T01:13:19.724Z,0.2
2019-05-25T01:13:55.819Z,0.6
2019-05-25T01:15:07.740Z,0.6
2019-05-25T01:16:19.812Z,0.2
2019-05-25T01:16:55.839Z,0.8
2019-05-25T01:18:07.718Z,0.4
2019-05-25T01:19:19.846Z,0.2
2019-05-25T01:19:55.756Z,0.4
2019-05-25T01:21:07.821Z,0.2
2019-05-25T01:22:19.746Z,0.8
2019-05-25T01:22:55.696Z,0.8
2019-05-25T01:24:07.759Z,0.8
2019-05-25T01:24:45.636Z,0.6
2019-05-25T01:25:55.797Z,0.4
2019-05-25T01:27:07.729Z,0.6
2019-05-25T01:28:19.795Z,0.6
2019-05-25T01:28:55.762Z,0.6
2019-05-25T01:30:07.697Z,0.6
2019-05-25T01:30:45.303Z,0.7
2019-05-25T01:31:55.750Z,0.8
2019-05-25T01:33:07.777Z,0.7
2019-05-25T01:34:19.858Z,0.8
2019-05-25T01:34:55.712Z,0.8
2019-05-25T01:36:07.747Z,0.6
2019-05-25T01:37:19.812Z,0.6
2019-05-25T01:37:55.759Z,0.2
2019-05-25T01:39:07.733Z,0.4
2019-05-25T01:40:19.782Z,0.6
2019-05-25T01:40:55.762Z,0.8
2019-05-25T01:42:07.685Z,0.8
2019-05-25T01:43:19.736Z,1
2019-05-25T01:43:55.696Z,0.8
2019-05-25T01:45:07.773Z,0.8
2019-05-25T01:46:19.707Z,0.6
2019-05-25T01:46:55.696Z,0.6
2019-05-25T01:48:07.759Z,0.6
2019-05-25T01:49:19.689Z,0.6
2019-05-25T01:49:55.753Z,0.8
2019-05-25T01:51:07.697Z,0.6
2019-05-25T01:52:19.819Z,0.8
2019-05-25T01:52:55.734Z,0.4
2019-05-25T01:54:07.782Z,0.8
2019-05-25T01:55:00.977Z,0.8
2019-05-25T01:55:55.700Z,0.8
2019-05-25T01:57:07.743Z,0.6
2019-05-25T01:58:19.696Z,0.4
2019-05-25T01:58:55.790Z,0.4
2019-05-25T02:00:07.736Z,0
2019-05-25T02:01:19.781Z,0.2
2019-05-25T02:01:55.807Z,0
2019-05-25T02:03:07.673Z,0.2
2019-05-25T02:04:19.773Z,0
2019-05-25T02:04:55.755Z,0
2019-05-25T02:06:07.789Z,0.2
2019-05-25T02:07:19.730Z,0
2019-05-25T02:07:55.675Z,0.2
2019-05-25T02:09:07.769Z,0.2
2019-05-25T02:10:19.685Z,0.2
2019-05-25T02:10:55.776Z,0
2019-05-25T02:12:07.704Z,0
2019-05-25T02:13:19.772Z,0
2019-05-25T02:13:55.750Z,0
2019-05-25T02:15:07.688Z,0
2019-05-25T02:16:19.734Z,0.2
2019-05-25T02:16:55.709Z,0.2
2019-05-25T02:18:07.765Z,0.2
2019-05-25T02:18:46.549Z,0
2019-05-25T02:19:55.665Z,0
2019-05-25T02:21:07.802Z,0
2019-05-25T02:22:19.655Z,0.2
2019-05-25T02:22:56.129Z,0
2019-05-25T02:24:07.702Z,0
2019-05-25T02:25:19.952Z,0.4
2019-05-25T02:25:55.742Z,0.8
2019-05-25T02:27:07.661Z,0.4
2019-05-25T02:28:19.725Z,0
2019-05-25T02:28:55.683Z,0
2019-05-25T02:30:07.806Z,0
2019-05-25T02:31:19.690Z,0
2019-05-25T02:31:55.643Z,0
2019-05-25T02:33:07.715Z,0.2
2019-05-25T02:34:19.832Z,0.6
2019-05-25T02:34:55.740Z,0.2
2019-05-25T02:36:07.685Z,0
2019-05-25T02:37:19.744Z,0
2019-05-25T02:37:55.699Z,0
2019-05-25T02:39:07.760Z,0
2019-05-25T02:40:19.705Z,0
2019-05-25T02:40:55.692Z,0
2019-05-25T02:42:07.770Z,0
2019-05-25T02:43:19.677Z,0
2019-05-25T02:43:55.762Z,0
2019-05-25T02:45:07.706Z,0
2019-05-25T02:46:19.750Z,0
2019-05-25T02:46:55.722Z,0
2019-05-25T02:48:07.663Z,0
2019-05-25T02:49:19.811Z,0
2019-05-25T02:49:55.692Z,0
2019-05-25T02:51:07.753Z,0
2019-05-25T02:52:19.682Z,0
2019-05-25T02:52:55.727Z,0
2019-05-25T02:54:07.714Z,0.2
2019-05-25T02:55:35.883Z,0
2019-05-25T02:57:07.707Z,0
2019-05-25T02:58:19.772Z,0
2019-05-25T02:58:55.713Z,0
2019-05-25T03:00:07.719Z,0
2019-05-25T03:01:19.732Z,0
2019-05-25T03:01:55.689Z,0
2019-05-25T03:03:07.857Z,0
2019-05-25T03:04:19.707Z,0
2019-05-25T03:04:55.649Z,0
2019-05-25T03:06:09.234Z,0
2019-05-25T03:07:19.643Z,0
2019-05-25T03:07:55.731Z,0
2019-05-25T03:09:07.769Z,0
2019-05-25T03:10:19.741Z,0
2019-05-25T03:10:55.741Z,0
2019-05-25T03:12:07.752Z,0
2019-05-25T03:13:19.693Z,0
2019-05-25T03:13:55.667Z,0
2019-05-25T03:15:07.998Z,0
2019-05-25T03:16:19.664Z,0
2019-05-25T03:16:55.737Z,0
2019-05-25T03:18:07.724Z,0
2019-05-25T03:19:19.768Z,0
2019-05-25T03:19:55.757Z,0
2019-05-25T03:21:07.665Z,0
2019-05-25T03:22:19.730Z,0
2019-05-25T03:22:55.683Z,0
2019-05-25T03:24:07.758Z,0
2019-05-25T03:25:19.685Z,0
2019-05-25T03:25:55.673Z,0
2019-05-25T03:27:07.717Z,0
2019-05-25T03:28:19.643Z,0
2019-05-25T03:28:55.767Z,0
2019-05-25T03:30:07.827Z,0
2019-05-25T03:31:19.750Z,0
2019-05-25T03:31:55.723Z,0
2019-05-25T03:33:07.650Z,0
2019-05-25T03:34:19.700Z,0
2019-05-25T03:34:55.751Z,0
2019-05-25T03:36:07.747Z,0.2
2019-05-25T03:37:19.683Z,0
2019-05-25T03:37:55.691Z,0
2019-05-25T03:39:07.711Z,0
2019-05-25T03:40:19.641Z,0
2019-05-25T03:40:55.737Z,0
2019-05-25T03:42:07.684Z,0.2
2019-05-25T03:43:19.717Z,0.2
2019-05-25T03:43:55.698Z,0
2019-05-25T03:45:07.845Z,0
2019-05-25T03:46:19.769Z,0
2019-05-25T03:46:55.665Z,0
2019-05-25T03:48:07.718Z,0
2019-05-25T03:49:19.661Z,0
2019-05-25T03:49:55.724Z,0.4
2019-05-25T03:51:07.682Z,0
2019-05-25T03:52:19.755Z,0
2019-05-25T03:52:55.699Z,0
2019-05-25T03:54:07.653Z,0
2019-05-25T03:55:19.708Z,0.4
2019-05-25T03:56:07.129Z,0.6
2019-05-25T03:57:07.726Z,0
2019-05-25T03:58:19.825Z,0
2019-05-25T03:58:55.642Z,0
2019-05-25T04:00:07.715Z,0
2019-05-25T04:01:19.874Z,0
2019-05-25T04:01:55.794Z,0
2019-05-25T04:03:07.718Z,0
2019-05-25T04:04:19.813Z,0.6
2019-05-25T04:04:55.692Z,0.6
2019-05-25T04:06:07.635Z,0.4
2019-05-25T04:07:19.703Z,0.4
2019-05-25T04:07:55.668Z,0.4
2019-05-25T04:09:07.716Z,0.2
2019-05-25T04:10:19.666Z,0.8
2019-05-25T04:10:55.686Z,0.8
2019-05-25T04:12:07.689Z,0.8
2019-05-25T04:13:19.655Z,0.8
2019-05-25T04:13:55.726Z,0.6
2019-05-25T04:15:07.656Z,0.9
2019-05-25T04:16:19.713Z,0.6
2019-05-25T04:16:55.684Z,0.6
2019-05-25T04:18:07.684Z,0.9
2019-05-25T04:19:19.715Z,0.6
2019-05-25T04:19:55.650Z,0.7
2019-05-25T04:21:07.700Z,0.4
2019-05-25T04:22:19.647Z,0.9
2019-05-25T04:22:55.723Z,1
2019-05-25T04:24:07.666Z,0.8
2019-05-25T04:25:19.771Z,0.4
2019-05-25T04:25:55.711Z,0.7
2019-05-25T04:27:07.633Z,0.8
2019-05-25T04:28:19.697Z,0.4
2019-05-25T04:28:55.683Z,0.4
2019-05-25T04:30:07.794Z,0.8
2019-05-25T04:31:19.674Z,1.1
2019-05-25T04:31:55.640Z,1.4
2019-05-25T04:33:07.698Z,0.6
2019-05-25T04:34:19.643Z,0.8
2019-05-25T04:34:55.724Z,0.8
2019-05-25T04:36:07.662Z,0.6
2019-05-25T04:37:19.705Z,0.8
2019-05-25T04:37:55.673Z,0.6
2019-05-25T04:39:07.632Z,0.8
2019-05-25T04:40:23.690Z,0.6
2019-05-25T04:40:55.660Z,0.4
2019-05-25T04:42:07.709Z,0.2
2019-05-25T04:43:19.693Z,0.8
2019-05-25T04:43:55.623Z,1
2019-05-25T04:45:07.695Z,0.8
2019-05-25T04:46:22.417Z,0.9
2019-05-25T04:46:55.708Z,1
2019-05-25T04:48:07.764Z,0.8
2019-05-25T04:49:19.761Z,0.2
2019-05-25T04:49:55.669Z,0.6
2019-05-25T04:51:07.610Z,0.6
2019-05-25T04:52:19.678Z,0.8
2019-05-25T04:52:55.650Z,0.6
2019-05-25T04:54:07.708Z,1.1
2019-05-25T04:55:19.631Z,0.8
2019-05-25T04:55:55.851Z,0.6
2019-05-25T04:56:40.880Z,0.9
2019-05-25T04:58:19.629Z,0.6
2019-05-25T04:58:55.682Z,0.4
2019-05-25T05:00:07.669Z,0.6
2019-05-25T05:01:23.434Z,0.7
2019-05-25T05:01:55.683Z,0.8
2019-05-25T05:03:07.582Z,0.5
2019-05-25T05:04:19.913Z,0.8
2019-05-25T05:04:55.623Z,0.8
2019-05-25T05:06:07.673Z,0.7
2019-05-25T05:07:19.870Z,0.9
2019-05-25T05:07:55.734Z,1
2019-05-25T05:08:35.954Z,1.1
2019-05-25T05:10:19.725Z,1.5
2019-05-25T05:10:55.741Z,1.3
2019-05-25T05:12:07.620Z,1.3
2019-05-25T05:13:19.688Z,1
2019-05-25T05:13:55.661Z,0.9
2019-05-25T05:15:07.733Z,1.1
2019-05-25T05:16:19.650Z,1.1
2019-05-25T05:16:55.649Z,1
2019-05-25T05:18:07.684Z,1.2
2019-05-25T05:19:19.621Z,1.3
2019-05-25T05:19:55.704Z,0.9
2019-05-25T05:21:07.630Z,1
2019-05-25T05:22:19.699Z,0.8
2019-05-25T05:22:55.673Z,0.8
2019-05-25T05:24:07.672Z,1.3
2019-05-25T05:25:19.654Z,0.9
2019-05-25T05:25:55.648Z,0.8
2019-05-25T05:27:07.710Z,0.9
2019-05-25T05:28:19.623Z,0.9
2019-05-25T05:28:55.602Z,0.7
2019-05-25T05:30:07.676Z,1.2
2019-05-25T05:31:24.607Z,0.9
2019-05-25T05:31:55.687Z,0.6
2019-05-25T05:33:07.614Z,0.6
2019-05-25T05:34:19.676Z,0.6
2019-05-25T05:34:55.659Z,0.4
2019-05-25T05:36:07.600Z,0.6
2019-05-25T05:37:19.667Z,0.7
2019-05-25T05:37:55.616Z,0.6
2019-05-25T05:39:07.682Z,1
2019-05-25T05:40:19.614Z,0.9
2019-05-25T05:40:55.602Z,0.6
2019-05-25T05:42:07.739Z,0.9
2019-05-25T05:43:19.841Z,0.8
2019-05-25T05:43:55.663Z,0.8
2019-05-25T05:45:07.624Z,1
2019-05-25T05:46:19.920Z,1.2
2019-05-25T05:46:55.648Z,0.8
2019-05-25T05:48:07.573Z,0.6
2019-05-25T05:49:19.889Z,0.6
2019-05-25T05:49:55.620Z,0.8
2019-05-25T05:51:07.660Z,0.6
2019-05-25T05:52:19.633Z,0.4
2019-05-25T05:52:55.649Z,0.8
2019-05-25T05:54:07.618Z,0.9
2019-05-25T05:55:19.568Z,0.9
2019-05-25T05:55:55.702Z,0.8
2019-05-25T05:57:13.651Z,1.1
2019-05-25T05:58:19.689Z,0.9
2019-05-25T05:58:55.613Z,1
2019-05-25T06:00:07.681Z,1.1
2019-05-25T06:01:19.613Z,1.3
2019-05-25T06:01:55.601Z,1
2019-05-25T06:03:07.633Z,1.1
2019-05-25T06:04:19.587Z,1
2019-05-25T06:04:55.654Z,1.1
2019-05-25T06:06:07.600Z,1
2019-05-25T06:07:19.681Z,1.1
2019-05-25T06:07:55.625Z,0.9
2019-05-25T06:09:07.577Z,1
2019-05-25T06:10:19.643Z,0.8
2019-05-25T06:10:55.619Z,0.6
2019-05-25T06:12:07.666Z,1
2019-05-25T06:13:19.592Z,1.1
2019-05-25T06:13:55.578Z,0.9
2019-05-25T06:15:07.654Z,0.8
2019-05-25T06:16:19.600Z,0.8
2019-05-25T06:16:55.638Z,0.6
2019-05-25T06:18:07.605Z,0.9
2019-05-25T06:19:19.702Z,0.8
2019-05-25T06:19:55.627Z,0.8
2019-05-25T06:21:07.538Z,1
2019-05-25T06:22:19.616Z,1.2
2019-05-25T06:22:55.610Z,1.4
2019-05-25T06:24:07.710Z,1
2019-05-25T06:25:19.917Z,1
2019-05-25T06:25:55.608Z,1
2019-05-25T06:27:07.608Z,0.9
2019-05-25T06:28:23.187Z,1.3
2019-05-25T06:28:55.654Z,1.3
2019-05-25T06:30:07.585Z,0.8
2019-05-25T06:31:19.636Z,0.7
2019-05-25T06:31:55.615Z,0.5
2019-05-25T06:33:07.538Z,0.6
2019-05-25T06:34:19.646Z,0.8
2019-05-25T06:34:55.570Z,0.8
2019-05-25T06:36:07.626Z,0.9
2019-05-25T06:37:19.576Z,0.8
2019-05-25T06:37:55.550Z,0.8
2019-05-25T06:39:07.608Z,0.4
2019-05-25T06:40:19.537Z,0.9
2019-05-25T06:40:55.706Z,1
2019-05-25T06:42:07.564Z,1.4
2019-05-25T06:43:19.630Z,0.6
2019-05-25T06:43:55.598Z,1.2
2019-05-25T06:45:07.603Z,1.7
2019-05-25T06:46:19.599Z,1.5
2019-05-25T06:46:55.549Z,1.4
2019-05-25T06:48:07.617Z,1.3
2019-05-25T06:49:19.580Z,1.3
2019-05-25T06:49:55.525Z,1.7
2019-05-25T06:51:07.607Z,1
2019-05-25T06:52:19.525Z,0.6
2019-05-25T06:52:58.894Z,1.2
2019-05-25T06:54:07.543Z,0.9
2019-05-25T06:55:19.622Z,0.9
2019-05-25T06:55:55.623Z,0.9
2019-05-25T06:57:07.628Z,0.7
2019-05-25T06:58:55.536Z,0.8
2019-05-25T07:00:07.612Z,0.6
2019-05-25T07:01:19.610Z,0.9
2019-05-25T07:01:55.623Z,0.9
2019-05-25T07:03:07.568Z,0.8
2019-05-25T07:04:19.643Z,0.8
2019-05-25T07:04:55.591Z,0.8
2019-05-25T07:06:07.521Z,1
2019-05-25T07:07:19.591Z,1
2019-05-25T07:07:55.765Z,0.8
2019-05-25T07:09:07.619Z,0.9
2019-05-25T07:10:19.549Z,1.3
2019-05-25T07:10:55.548Z,1.4
2019-05-25T07:12:07.674Z,0.9
2019-05-25T07:13:19.523Z,1.1
2019-05-25T07:13:55.707Z,1.2
2019-05-25T07:15:07.553Z,0.9
2019-05-25T07:16:19.607Z,1.1
2019-05-25T07:16:55.579Z,1
2019-05-25T07:18:07.527Z,1
2019-05-25T07:19:19.581Z,0.8
2019-05-25T07:19:55.595Z,0.8
2019-05-25T07:21:19.524Z,0.9
2019-05-25T07:21:55.595Z,0.9
2019-05-25T07:23:07.559Z,1
2019-05-25T07:24:19.602Z,1.2
2019-05-25T07:24:55.582Z,0.9
2019-05-25T07:26:07.547Z,0.8
2019-05-25T07:27:19.571Z,0.8
2019-05-25T07:28:01.072Z,0.8
2019-05-25T07:29:07.598Z,1
2019-05-25T07:30:19.556Z,0.9
2019-05-25T07:30:57.084Z,1
2019-05-25T07:32:07.557Z,1
2019-05-25T07:33:19.529Z,1.3
2019-05-25T07:33:55.596Z,1.1
2019-05-25T07:35:07.632Z,1
2019-05-25T07:36:19.580Z,0.6
2019-05-25T07:36:55.557Z,0.8
2019-05-25T07:38:07.635Z,0.9
2019-05-25T07:39:20.071Z,0.6
2019-05-25T07:39:55.557Z,0.4
2019-05-25T07:41:07.614Z,0.8
2019-05-25T07:42:20.982Z,1.1
2019-05-25T07:42:55.491Z,1.3
2019-05-25T07:44:07.576Z,2.3
2019-05-25T07:45:19.503Z,1.1
2019-05-25T07:45:55.575Z,1.2
2019-05-25T07:47:07.521Z,0.9
2019-05-25T07:48:19.584Z,0.8
2019-05-25T07:48:55.546Z,0.8
2019-05-25T07:50:07.526Z,1
2019-05-25T07:51:19.599Z,0.8
2019-05-25T07:51:55.497Z,0.6
2019-05-25T07:53:07.578Z,0.8
2019-05-25T07:54:19.516Z,1.1
2019-05-25T07:54:55.500Z,0.9
2019-05-25T07:56:07.777Z,0.8
2019-05-25T07:57:19.614Z,0.9
2019-05-25T07:57:55.578Z,1
2019-05-25T07:59:07.505Z,2.7
2019-05-25T08:00:19.661Z,1.7
2019-05-25T08:00:55.607Z,1
2019-05-25T08:02:07.595Z,1.1
2019-05-25T08:03:19.605Z,1.1
2019-05-25T08:03:55.509Z,0.8
2019-05-25T08:05:07.593Z,0.6
2019-05-25T08:06:19.494Z,1.4
2019-05-25T08:07:07.499Z,0.8
2019-05-25T08:08:19.552Z,1.3
2019-05-25T08:08:55.522Z,1.5
2019-05-25T08:10:07.583Z,2.1
2019-05-25T08:11:19.577Z,2
2019-05-25T08:11:55.495Z,1.1
2019-05-25T08:12:43.503Z,1.1
2019-05-25T08:13:19.576Z,1.4
2019-05-25T08:13:55.532Z,1.2
2019-05-25T08:15:07.479Z,1
2019-05-25T08:16:19.571Z,1.5
2019-05-25T08:16:55.528Z,1.3
2019-05-25T08:18:07.673Z,1.6
2019-05-25T08:19:19.540Z,1.3
2019-05-25T08:19:55.475Z,1.3
2019-05-25T08:21:07.533Z,1
2019-05-25T08:22:31.498Z,1.1
2019-05-25T08:23:07.484Z,1.3
2019-05-25T08:24:19.538Z,0.8
2019-05-25T08:24:55.531Z,0.9
2019-05-25T08:26:07.559Z,1.1
2019-05-25T08:27:19.756Z,0.9
2019-05-25T08:27:55.472Z,1.1
2019-05-25T08:29:07.509Z,1.8
2019-05-25T08:30:19.463Z,1.1
2019-05-25T08:30:55.579Z,1.4
2019-05-25T08:31:55.487Z,1
2019-05-25T08:32:31.562Z,0.8
2019-05-25T08:33:07.527Z,1
2019-05-25T08:34:19.456Z,0.7
2019-05-25T08:34:55.582Z,0.9
2019-05-25T08:36:07.507Z,1
2019-05-25T08:37:19.562Z,1.2
2019-05-25T08:37:55.518Z,0.8
2019-05-25T08:39:07.463Z,1
2019-05-25T08:39:55.444Z,1.1
2019-05-25T08:41:19.546Z,1.5
2019-05-25T08:41:55.533Z,1.3
2019-05-25T08:43:07.448Z,2
2019-05-25T08:44:19.508Z,1.2
2019-05-25T08:45:07.518Z,1.4
2019-05-25T08:46:19.432Z,1
2019-05-25T08:46:56.428Z,0.8
2019-05-25T08:48:07.467Z,1.1
2019-05-25T08:49:19.542Z,0.9
2019-05-25T08:49:55.500Z,1
2019-05-25T08:50:39.520Z,1
2019-05-25T08:52:19.615Z,1.5
2019-05-25T08:52:55.495Z,1.1
2019-05-25T08:53:46.883Z,0.8
2019-05-25T08:55:19.463Z,1.3
2019-05-25T08:55:55.424Z,1.8
2019-05-25T08:57:07.529Z,1.5
2019-05-25T08:58:19.521Z,1
2019-05-25T08:58:56.525Z,1
2019-05-25T09:00:19.637Z,1.1
2019-05-25T09:01:07.494Z,0.9
2019-05-25T09:02:19.534Z,1.1
2019-05-25T09:02:55.550Z,0.9
2019-05-25T09:04:07.462Z,0.6
2019-05-25T09:05:19.556Z,1.1
2019-05-25T09:05:55.477Z,0.9
2019-05-25T09:07:07.533Z,1
2019-05-25T09:08:19.481Z,1.4
2019-05-25T09:08:55.545Z,1.9
2019-05-25T09:09:43.566Z,1.2
2019-05-25T09:10:31.441Z,1.1
2019-05-25T09:11:07.557Z,0.8
2019-05-25T09:12:19.481Z,0.9
2019-05-25T09:12:55.452Z,0.8
2019-05-25T09:14:07.583Z,1.1
2019-05-25T09:15:19.463Z,0.9
2019-05-25T09:15:56.007Z,0.9
2019-05-25T09:17:07.482Z,0.7
2019-05-25T09:17:55.471Z,0.8
2019-05-25T09:19:07.588Z,1.1
2019-05-25T09:20:19.488Z,1
2019-05-25T09:20:55.437Z,0.9
2019-05-25T09:22:07.501Z,0.9
2019-05-25T09:23:19.435Z,1.2
2019-05-25T09:23:55.580Z,1.6
2019-05-25T09:25:07.483Z,0.6
2019-05-25T09:26:19.522Z,0.9
2019-05-25T09:26:55.507Z,1.2
2019-05-25T09:28:07.470Z,1.7
2019-05-25T09:29:19.475Z,1
2019-05-25T09:29:55.474Z,0.5
2019-05-25T09:31:07.559Z,0.9
2019-05-25T09:32:19.580Z,1
2019-05-25T09:32:55.473Z,0.8
2019-05-25T09:34:07.482Z,0.8
2019-05-25T09:35:19.688Z,1.5
2019-05-25T09:35:55.507Z,1.7
2019-05-25T09:37:07.454Z,1
2019-05-25T09:38:19.836Z,1.1
2019-05-25T09:39:07.526Z,1.5
2019-05-25T09:40:19.496Z,1.1
2019-05-25T09:40:55.423Z,1.1
2019-05-25T09:42:07.470Z,0.7
2019-05-25T09:43:19.672Z,0.8
2019-05-25T09:43:55.480Z,0.4
2019-05-25T09:45:07.482Z,1.8
2019-05-25T09:46:19.867Z,0.8
2019-05-25T09:46:55.465Z,0.8
2019-05-25T09:48:07.396Z,1.4
2019-05-25T09:49:19.595Z,0.9
2019-05-25T09:49:55.420Z,1.1
2019-05-25T09:51:16.623Z,1
2019-05-25T09:52:19.519Z,1
2019-05-25T09:52:55.404Z,1.1
2019-05-25T09:54:07.454Z,1.6
2019-05-25T09:55:19.392Z,0.7
2019-05-25T09:55:55.511Z,0.6
2019-05-25T09:56:43.507Z,1.1
2019-05-25T09:57:19.440Z,1.1
2019-05-25T09:57:55.485Z,1
2019-05-25T09:59:21.159Z,0.9
2019-05-25T10:00:19.532Z,1.5
2019-05-25T10:00:55.386Z,1.4
2019-05-25T10:02:07.466Z,1
2019-05-25T10:02:45.125Z,0.6
2019-05-25T10:03:57.635Z,1.1
2019-05-25T10:05:07.423Z,0.8
2019-05-25T10:06:19.586Z,1.1
2019-05-25T10:06:55.499Z,1
2019-05-25T10:08:07.531Z,0.8
2019-05-25T10:09:19.957Z,0.7
2019-05-25T10:09:55.411Z,0.9
2019-05-25T10:11:07.463Z,0.8
2019-05-25T10:12:19.394Z,0.8
2019-05-25T10:12:55.533Z,0.8
2019-05-25T10:14:07.462Z,0.6
2019-05-25T10:15:20.010Z,1
2019-05-25T10:15:55.466Z,1.2
2019-05-25T10:16:43.454Z,1
2019-05-25T10:17:19.428Z,1
2019-05-25T10:17:55.479Z,1.5
2019-05-25T10:18:43.411Z,1.4
2019-05-25T10:19:19.500Z,1.2
2019-05-25T10:19:55.472Z,1.1
2019-05-25T10:21:07.374Z,0.9
2019-05-25T10:22:19.494Z,1.1
2019-05-25T10:22:55.525Z,1.1
2019-05-25T10:24:07.518Z,1.1
2019-05-25T10:25:19.435Z,1
2019-05-25T10:25:55.392Z,1.6
2019-05-25T10:26:43.406Z,1.4
2019-05-25T10:27:19.490Z,1.2
2019-05-25T10:27:55.451Z,1
2019-05-25T10:29:07.393Z,0.9
2019-05-25T10:30:19.462Z,0.9
2019-05-25T10:30:55.656Z,0.9
2019-05-25T10:32:07.457Z,0.8
2019-05-25T10:33:22.609Z,0.8
2019-05-25T10:33:55.432Z,0.8
2019-05-25T10:35:07.433Z,0.9
2019-05-25T10:36:31.404Z,1.3
2019-05-25T10:37:19.436Z,1.6
2019-05-25T10:37:55.431Z,1.3
2019-05-25T10:39:07.433Z,0.8
2019-05-25T10:40:19.441Z,0.9
2019-05-25T10:40:59.295Z,0.9
2019-05-25T10:42:07.391Z,0.8
2019-05-25T10:43:19.579Z,0.9
2019-05-25T10:43:55.439Z,0.8
2019-05-25T10:45:07.374Z,0.8
2019-05-25T10:46:19.710Z,0.6
2019-05-25T10:46:55.401Z,0.6
2019-05-25T10:48:07.438Z,0.8
2019-05-25T10:49:19.405Z,0.6
2019-05-25T10:49:55.377Z,0.8
2019-05-25T10:51:07.487Z,1
2019-05-25T10:52:19.403Z,1
2019-05-25T10:52:55.471Z,1.2
2019-05-25T10:53:43.443Z,1.6
2019-05-25T10:54:31.455Z,2.1
2019-05-25T10:55:07.452Z,2.2
2019-05-25T10:56:19.418Z,1.9
2019-05-25T10:56:55.436Z,1.8
2019-05-25T10:58:07.385Z,1
2019-05-25T10:59:19.482Z,0.9
2019-05-25T10:59:55.407Z,0.6
2019-05-25T11:01:07.342Z,1.3
2019-05-25T11:02:19.425Z,0.6
2019-05-25T11:02:55.394Z,0.6
2019-05-25T11:04:07.423Z,0.6
2019-05-25T11:05:19.397Z,0.8
2019-05-25T11:05:55.366Z,0.8
2019-05-25T11:06:35.326Z,0.9
2019-05-25T11:08:19.446Z,1.3
2019-05-25T11:08:55.431Z,0.9
2019-05-25T11:10:07.368Z,0.8
2019-05-25T11:11:07.405Z,0.8
2019-05-25T11:11:43.366Z,0.8
2019-05-25T11:12:19.471Z,0.9
2019-05-25T11:13:31.380Z,0.9
2019-05-25T11:14:07.378Z,0.8
2019-05-25T11:15:19.678Z,0.8
2019-05-25T11:16:31.381Z,1.1
2019-05-25T11:17:07.479Z,0.8
2019-05-25T11:18:19.645Z,0.8
2019-05-25T11:19:31.449Z,1.1
2019-05-25T11:20:19.444Z,0.9
2019-05-25T11:21:31.448Z,0.8
2019-05-25T11:22:07.361Z,1
2019-05-25T11:23:19.454Z,0.8
2019-05-25T11:24:07.393Z,1.1
2019-05-25T11:25:19.344Z,0.8
2019-05-25T11:26:31.504Z,0.8
2019-05-25T11:27:19.404Z,1.9
2019-05-25T11:28:31.325Z,1.9
2019-05-25T11:29:07.487Z,2.3
2019-05-25T11:30:19.358Z,1.4
2019-05-25T11:31:32.308Z,1.9
2019-05-25T11:32:08.811Z,2.1
2019-05-25T11:33:19.347Z,1.2
2019-05-25T11:34:31.385Z,0.7
2019-05-25T11:35:07.470Z,0.8
2019-05-25T11:36:31.315Z,1.4
2019-05-25T11:37:07.416Z,1.6
2019-05-25T11:38:19.632Z,1.3
2019-05-25T11:39:31.444Z,0.9
2019-05-25T11:40:19.499Z,0.8
2019-05-25T11:41:31.355Z,0.8
2019-05-25T11:42:07.325Z,0.8
2019-05-25T11:43:19.488Z,0.8
2019-05-25T11:44:31.325Z,0.8
2019-05-25T11:45:07.426Z,1.1
2019-05-25T11:46:19.359Z,1
2019-05-25T11:47:31.447Z,0.8
2019-05-25T11:48:07.377Z,1
2019-05-25T11:49:23.701Z,1.5
2019-05-25T11:50:31.374Z,1.4
2019-05-25T11:51:07.335Z,1.7
2019-05-25T11:52:31.318Z,1
2019-05-25T11:53:07.430Z,1.2
2019-05-25T11:54:19.468Z,1.3
2019-05-25T11:55:31.390Z,1.3
2019-05-25T11:56:19.413Z,0.8
2019-05-25T11:57:31.335Z,0.8
2019-05-25T11:58:07.374Z,1.2
2019-05-25T11:58:48.556Z,1.2
2019-05-25T12:00:43.309Z,1.3
2019-05-25T12:01:19.546Z,1.6
2019-05-25T12:02:31.372Z,1.5
2019-05-25T12:03:07.344Z,2.5
2019-05-25T12:04:19.412Z,1.4
2019-05-25T12:05:07.420Z,1.5
2019-05-25T12:05:55.403Z,1.1
2019-05-25T12:06:31.384Z,0.8
2019-05-25T12:07:31.390Z,1.2
2019-05-25T12:08:07.369Z,1
2019-05-25T12:08:43.308Z,0.8
2019-05-25T12:09:31.363Z,2.5
2019-05-25T12:10:43.403Z,2.7
2019-05-25T12:11:55.316Z,2
2019-05-25T12:12:31.293Z,3
2019-05-25T12:13:43.355Z,2
2019-05-25T12:15:07.338Z,2.9
2019-05-25T12:16:07.337Z,2.2
2019-05-25T12:16:43.316Z,1.8
2019-05-25T12:17:19.406Z,1.8
2019-05-25T12:18:31.368Z,1.1
2019-05-25T12:19:07.390Z,1.1
2019-05-25T12:19:55.312Z,1
2019-05-25T12:20:31.420Z,1.2
2019-05-25T12:21:31.326Z,1
2019-05-25T12:22:07.409Z,0.8
2019-05-25T12:22:43.403Z,1
2019-05-25T12:23:55.296Z,1.4
2019-05-25T12:24:31.577Z,1
2019-05-25T12:25:19.401Z,1
2019-05-25T12:25:55.365Z,0.8
2019-05-25T12:27:07.287Z,0.8
2019-05-25T12:28:19.427Z,1.4
2019-05-25T12:28:55.328Z,1.3
2019-05-25T12:30:07.420Z,1.5
2019-05-25T12:31:19.428Z,1.4
2019-05-25T12:32:05.202Z,1.5
2019-05-25T12:33:07.422Z,0.8
2019-05-25T12:34:19.402Z,1
2019-05-25T12:34:55.374Z,1
2019-05-25T12:36:19.433Z,1.1
2019-05-25T12:37:19.370Z,1.2
2019-05-25T12:37:55.350Z,1.3
2019-05-25T12:38:31.380Z,1.2
2019-05-25T12:39:43.368Z,1.4
2019-05-25T12:40:19.392Z,1.2
2019-05-25T12:41:31.294Z,1.8
2019-05-25T12:42:46.751Z,2.2
2019-05-25T12:43:19.430Z,1.5
2019-05-25T12:44:35.327Z,0.9
2019-05-25T12:45:43.307Z,0.8
2019-05-25T12:46:19.578Z,1
2019-05-25T12:47:43.403Z,1.4
2019-05-25T12:48:19.452Z,1.4
2019-05-25T12:49:51.660Z,1.1
2019-05-25T12:50:43.324Z,1.1
2019-05-25T12:51:19.441Z,1
2019-05-25T12:52:31.353Z,1
2019-05-25T12:53:43.297Z,1.1
2019-05-25T12:54:19.290Z,1.3
2019-05-25T12:55:31.324Z,0.8
2019-05-25T12:56:31.428Z,2
2019-05-25T12:57:31.263Z,1.6
2019-05-25T12:58:07.356Z,1.1
2019-05-25T12:58:55.351Z,1.1
2019-05-25T12:59:43.349Z,1.1
2019-05-25T13:00:57.216Z,0.9
2019-05-25T13:01:31.243Z,0.8
2019-05-25T13:02:43.336Z,1.3
2019-05-25T13:03:55.258Z,2.6
2019-05-25T13:04:31.501Z,4
2019-05-25T13:05:43.307Z,2.1
2019-05-25T13:06:55.339Z,1.3
2019-05-25T13:07:31.324Z,0.8
2019-05-25T13:08:44.848Z,2.6
2019-05-25T13:09:31.247Z,2
2019-05-25T13:10:19.245Z,1.5
2019-05-25T13:10:55.324Z,1.4
2019-05-25T13:12:07.282Z,1.9
2019-05-25T13:12:43.263Z,1.9
2019-05-25T13:13:31.258Z,1.1
2019-05-25T13:14:19.602Z,1.3
2019-05-25T13:15:31.355Z,3.4
2019-05-25T13:16:07.477Z,3.5
2019-05-25T13:17:07.298Z,1.7
2019-05-25T13:17:43.281Z,2.1
2019-05-25T13:18:19.357Z,2.3
2019-05-25T13:19:31.297Z,2.1
2019-05-25T13:20:07.275Z,2.3
2019-05-25T13:21:19.819Z,1.4
2019-05-25T13:22:07.346Z,1.7
2019-05-25T13:23:19.289Z,1.3
2019-05-25T13:24:31.337Z,1.1
2019-05-25T13:25:07.456Z,1.5
2019-05-25T13:26:19.456Z,1.3
2019-05-25T13:27:31.278Z,0.9
2019-05-25T13:28:07.260Z,1.1
2019-05-25T13:29:19.341Z,0.9
2019-05-25T13:30:31.277Z,0.9
2019-05-25T13:31:12.969Z,1
2019-05-25T13:32:19.450Z,1.5
2019-05-25T13:33:07.270Z,1.4
2019-05-25T13:34:19.443Z,1.6
2019-05-25T13:35:55.363Z,1.2
2019-05-25T13:36:31.308Z,1.3
2019-05-25T13:37:07.278Z,1.3
2019-05-25T13:38:19.566Z,1
2019-05-25T13:38:55.375Z,1.5
2019-05-25T13:40:07.272Z,1.4
2019-05-25T13:41:31.309Z,1.1
2019-05-25T13:42:07.305Z,1.1
2019-05-25T13:43:19.225Z,0.8